sensor_id;sensor_type;location;lat;lon;timestamp;temperature;humidity
17599;DHT22;8918;52.092;5.232;2024-02-26T00:01:23;5.50;99.90
17599;DHT22;8918;52.092;5.232;2024-02-26T00:03:49;5.50;99.90
17599;DHT22;8918;52.092;5.232;2024-02-26T00:06:15;5.50;99.90
17599;DHT22;8918;52.092;5.232;2024-02-26T00:08:41;5.50;99.90
17599;DHT22;8918;52.092;5.232;2024-02-26T00:11:06;5.50;99.90
17599;DHT22;8918;52.092;5.232;2024-02-26T00:13:32;5.50;99.90
17599;DHT22;8918;52.092;5.232;2024-02-26T00:15:59;5.50;99.90
17599;DHT22;8918;52.092;5.232;2024-02-26T00:18:24;5.50;99.90
17599;DHT22;8918;52.092;5.232;2024-02-26T00:20:50;5.50;99.90
17599;DHT22;8918;52.092;5.232;2024-02-26T00:23:16;5.50;99.90
17599;DHT22;8918;52.092;5.232;2024-02-26T00:25:41;5.40;99.90
17599;DHT22;8918;52.092;5.232;2024-02-26T00:28:09;5.40;99.90
17599;DHT22;8918;52.092;5.232;2024-02-26T00:30:35;5.40;99.90
17599;DHT22;8918;52.092;5.232;2024-02-26T00:33:00;5.40;99.90
17599;DHT22;8918;52.092;5.232;2024-02-26T00:35:26;5.40;99.90
17599;DHT22;8918;52.092;5.232;2024-02-26T00:37:52;5.40;99.90
17599;DHT22;8918;52.092;5.232;2024-02-26T00:40:17;5.40;99.90
17599;DHT22;8918;52.092;5.232;2024-02-26T00:42:43;5.30;99.90
17599;DHT22;8918;52.092;5.232;2024-02-26T00:45:12;5.30;99.90
17599;DHT22;8918;52.092;5.232;2024-02-26T00:47:38;5.30;99.90
17599;DHT22;8918;52.092;5.232;2024-02-26T00:50:06;5.40;99.90
17599;DHT22;8918;52.092;5.232;2024-02-26T00:52:32;5.30;99.90
17599;DHT22;8918;52.092;5.232;2024-02-26T00:54:58;5.30;99.90
17599;DHT22;8918;52.092;5.232;2024-02-26T00:57:23;5.30;99.90
17599;DHT22;8918;52.092;5.232;2024-02-26T00:59:49;5.40;99.90
17599;DHT22;8918;52.092;5.232;2024-02-26T01:02:16;5.40;99.90
17599;DHT22;8918;52.092;5.232;2024-02-26T01:04:41;5.40;99.90
17599;DHT22;8918;52.092;5.232;2024-02-26T01:07:07;5.40;99.90
17599;DHT22;8918;52.092;5.232;2024-02-26T01:09:32;5.40;99.90
17599;DHT22;8918;52.092;5.232;2024-02-26T01:11:58;5.40;99.90
17599;DHT22;8918;52.092;5.232;2024-02-26T01:14:24;5.40;99.90
17599;DHT22;8918;52.092;5.232;2024-02-26T01:16:49;5.40;99.90
17599;DHT22;8918;52.092;5.232;2024-02-26T01:19:15;5.40;99.90
17599;DHT22;8918;52.092;5.232;2024-02-26T01:21:41;5.40;99.90
17599;DHT22;8918;52.092;5.232;2024-02-26T01:24:06;5.40;99.90
17599;DHT22;8918;52.092;5.232;2024-02-26T01:26:32;5.40;99.90
17599;DHT22;8918;52.092;5.232;2024-02-26T01:28:58;5.40;99.90
17599;DHT22;8918;52.092;5.232;2024-02-26T01:31:23;5.40;99.90
17599;DHT22;8918;52.092;5.232;2024-02-26T01:33:49;5.40;99.90
17599;DHT22;8918;52.092;5.232;2024-02-26T01:36:15;5.50;99.90
17599;DHT22;8918;52.092;5.232;2024-02-26T01:38:40;5.40;99.90
17599;DHT22;8918;52.092;5.232;2024-02-26T01:41:06;5.40;99.90
17599;DHT22;8918;52.092;5.232;2024-02-26T01:43:32;5.50;99.90
17599;DHT22;8918;52.092;5.232;2024-02-26T01:45:58;5.50;99.90
17599;DHT22;8918;52.092;5.232;2024-02-26T01:48:23;5.50;99.90
17599;DHT22;8918;52.092;5.232;2024-02-26T01:50:49;5.50;99.90
17599;DHT22;8918;52.092;5.232;2024-02-26T01:53:16;5.50;99.90
17599;DHT22;8918;52.092;5.232;2024-02-26T01:55:42;5.50;99.90
17599;DHT22;8918;52.092;5.232;2024-02-26T01:58:08;5.50;99.90
17599;DHT22;8918;52.092;5.232;2024-02-26T02:00:34;5.50;99.90
17599;DHT22;8918;52.092;5.232;2024-02-26T02:03:01;5.50;99.90
17599;DHT22;8918;52.092;5.232;2024-02-26T02:05:28;5.50;99.90
17599;DHT22;8918;52.092;5.232;2024-02-26T02:07:54;5.50;99.90
17599;DHT22;8918;52.092;5.232;2024-02-26T02:10:20;5.50;99.90
17599;DHT22;8918;52.092;5.232;2024-02-26T02:12:48;5.50;99.90
17599;DHT22;8918;52.092;5.232;2024-02-26T02:15:14;5.50;99.90
17599;DHT22;8918;52.092;5.232;2024-02-26T02:17:40;5.50;99.90
17599;DHT22;8918;52.092;5.232;2024-02-26T02:20:17;5.50;99.90
17599;DHT22;8918;52.092;5.232;2024-02-26T02:22:44;5.50;99.90
17599;DHT22;8918;52.092;5.232;2024-02-26T02:25:10;5.50;99.90
17599;DHT22;8918;52.092;5.232;2024-02-26T02:27:36;5.50;99.90
17599;DHT22;8918;52.092;5.232;2024-02-26T02:30:02;5.50;99.90
17599;DHT22;8918;52.092;5.232;2024-02-26T02:32:29;5.40;99.90
17599;DHT22;8918;52.092;5.232;2024-02-26T02:34:56;5.40;99.90
17599;DHT22;8918;52.092;5.232;2024-02-26T02:37:22;5.40;99.90
17599;DHT22;8918;52.092;5.232;2024-02-26T02:39:47;5.40;99.90
17599;DHT22;8918;52.092;5.232;2024-02-26T02:42:13;5.40;99.90
17599;DHT22;8918;52.092;5.232;2024-02-26T02:44:39;5.40;99.90
17599;DHT22;8918;52.092;5.232;2024-02-26T02:47:05;5.40;99.90
17599;DHT22;8918;52.092;5.232;2024-02-26T02:49:30;5.40;99.90
17599;DHT22;8918;52.092;5.232;2024-02-26T02:51:56;5.40;99.90
17599;DHT22;8918;52.092;5.232;2024-02-26T02:54:23;5.40;99.90
17599;DHT22;8918;52.092;5.232;2024-02-26T02:56:48;5.40;99.90
17599;DHT22;8918;52.092;5.232;2024-02-26T02:59:14;5.40;99.90
17599;DHT22;8918;52.092;5.232;2024-02-26T03:01:40;5.40;99.90
17599;DHT22;8918;52.092;5.232;2024-02-26T03:04:05;5.40;99.90
17599;DHT22;8918;52.092;5.232;2024-02-26T03:06:31;5.40;99.90
17599;DHT22;8918;52.092;5.232;2024-02-26T03:08:56;5.40;99.90
17599;DHT22;8918;52.092;5.232;2024-02-26T03:11:22;5.40;99.90
17599;DHT22;8918;52.092;5.232;2024-02-26T03:13:48;5.40;99.90
17599;DHT22;8918;52.092;5.232;2024-02-26T03:16:13;5.40;99.90
17599;DHT22;8918;52.092;5.232;2024-02-26T03:18:39;5.40;99.90
17599;DHT22;8918;52.092;5.232;2024-02-26T03:21:06;5.40;99.90
17599;DHT22;8918;52.092;5.232;2024-02-26T03:23:32;5.40;99.90
17599;DHT22;8918;52.092;5.232;2024-02-26T03:26:04;5.40;99.90
17599;DHT22;8918;52.092;5.232;2024-02-26T03:28:30;5.40;99.90
17599;DHT22;8918;52.092;5.232;2024-02-26T03:30:59;5.40;99.90
17599;DHT22;8918;52.092;5.232;2024-02-26T03:33:24;5.40;99.90
17599;DHT22;8918;52.092;5.232;2024-02-26T03:35:50;5.40;99.90
17599;DHT22;8918;52.092;5.232;2024-02-26T03:38:15;5.40;99.90
17599;DHT22;8918;52.092;5.232;2024-02-26T03:40:41;5.40;99.90
17599;DHT22;8918;52.092;5.232;2024-02-26T03:43:07;5.40;99.90
17599;DHT22;8918;52.092;5.232;2024-02-26T03:45:33;5.40;99.90
17599;DHT22;8918;52.092;5.232;2024-02-26T03:47:58;5.40;99.90
17599;DHT22;8918;52.092;5.232;2024-02-26T03:50:24;5.40;99.90
17599;DHT22;8918;52.092;5.232;2024-02-26T03:52:50;5.30;99.90
17599;DHT22;8918;52.092;5.232;2024-02-26T03:55:15;5.40;99.90
17599;DHT22;8918;52.092;5.232;2024-02-26T03:57:43;5.40;99.90
17599;DHT22;8918;52.092;5.232;2024-02-26T04:00:09;5.30;99.90
17599;DHT22;8918;52.092;5.232;2024-02-26T04:02:35;5.40;99.90
17599;DHT22;8918;52.092;5.232;2024-02-26T04:05:00;5.30;99.90
17599;DHT22;8918;52.092;5.232;2024-02-26T04:07:26;5.30;99.90
17599;DHT22;8918;52.092;5.232;2024-02-26T04:09:52;5.30;99.90
17599;DHT22;8918;52.092;5.232;2024-02-26T04:12:17;5.30;99.90
17599;DHT22;8918;52.092;5.232;2024-02-26T04:14:44;5.30;99.90
17599;DHT22;8918;52.092;5.232;2024-02-26T04:17:10;5.30;99.90
17599;DHT22;8918;52.092;5.232;2024-02-26T04:19:36;5.30;99.90
17599;DHT22;8918;52.092;5.232;2024-02-26T04:22:02;5.30;99.90
17599;DHT22;8918;52.092;5.232;2024-02-26T04:24:28;5.30;99.90
17599;DHT22;8918;52.092;5.232;2024-02-26T04:26:53;5.30;99.90
17599;DHT22;8918;52.092;5.232;2024-02-26T04:29:19;5.30;99.90
17599;DHT22;8918;52.092;5.232;2024-02-26T04:31:45;5.30;99.90
17599;DHT22;8918;52.092;5.232;2024-02-26T04:34:12;5.30;99.90
17599;DHT22;8918;52.092;5.232;2024-02-26T04:36:37;5.30;99.90
17599;DHT22;8918;52.092;5.232;2024-02-26T04:39:03;5.30;99.90
17599;DHT22;8918;52.092;5.232;2024-02-26T04:41:28;5.30;99.90
17599;DHT22;8918;52.092;5.232;2024-02-26T04:43:54;5.30;99.90
17599;DHT22;8918;52.092;5.232;2024-02-26T04:46:20;5.30;99.90
17599;DHT22;8918;52.092;5.232;2024-02-26T04:48:47;5.30;99.90
17599;DHT22;8918;52.092;5.232;2024-02-26T04:51:13;5.30;99.90
17599;DHT22;8918;52.092;5.232;2024-02-26T04:53:38;5.30;99.90
17599;DHT22;8918;52.092;5.232;2024-02-26T04:56:04;5.30;99.90
17599;DHT22;8918;52.092;5.232;2024-02-26T04:58:30;5.30;99.90
17599;DHT22;8918;52.092;5.232;2024-02-26T05:00:58;5.30;99.90
17599;DHT22;8918;52.092;5.232;2024-02-26T05:03:24;5.30;99.90
17599;DHT22;8918;52.092;5.232;2024-02-26T05:05:49;5.30;99.90
17599;DHT22;8918;52.092;5.232;2024-02-26T05:08:15;5.30;99.90
17599;DHT22;8918;52.092;5.232;2024-02-26T05:10:41;5.30;99.90
17599;DHT22;8918;52.092;5.232;2024-02-26T05:13:09;5.20;99.90
17599;DHT22;8918;52.092;5.232;2024-02-26T05:15:35;5.20;99.90
17599;DHT22;8918;52.092;5.232;2024-02-26T05:18:01;5.30;99.90
17599;DHT22;8918;52.092;5.232;2024-02-26T05:20:28;5.20;99.90
17599;DHT22;8918;52.092;5.232;2024-02-26T05:22:54;5.20;99.90
17599;DHT22;8918;52.092;5.232;2024-02-26T05:25:19;5.20;99.90
17599;DHT22;8918;52.092;5.232;2024-02-26T05:27:45;5.20;99.90
17599;DHT22;8918;52.092;5.232;2024-02-26T05:30:11;5.30;99.90
17599;DHT22;8918;52.092;5.232;2024-02-26T05:32:37;5.30;99.90
17599;DHT22;8918;52.092;5.232;2024-02-26T05:35:03;5.30;99.90
17599;DHT22;8918;52.092;5.232;2024-02-26T05:37:30;5.30;99.90
17599;DHT22;8918;52.092;5.232;2024-02-26T05:39:55;5.30;99.90
17599;DHT22;8918;52.092;5.232;2024-02-26T05:42:23;5.30;99.90
17599;DHT22;8918;52.092;5.232;2024-02-26T05:44:49;5.20;99.90
17599;DHT22;8918;52.092;5.232;2024-02-26T05:47:14;5.20;99.90
17599;DHT22;8918;52.092;5.232;2024-02-26T05:49:40;5.20;99.90
17599;DHT22;8918;52.092;5.232;2024-02-26T05:52:06;5.30;99.90
17599;DHT22;8918;52.092;5.232;2024-02-26T05:54:31;5.30;99.90
17599;DHT22;8918;52.092;5.232;2024-02-26T05:56:58;5.30;99.90
17599;DHT22;8918;52.092;5.232;2024-02-26T05:59:23;5.20;99.90
17599;DHT22;8918;52.092;5.232;2024-02-26T06:01:49;5.20;99.90
17599;DHT22;8918;52.092;5.232;2024-02-26T06:04:14;5.20;99.90
17599;DHT22;8918;52.092;5.232;2024-02-26T06:06:40;5.20;99.90
17599;DHT22;8918;52.092;5.232;2024-02-26T06:09:06;5.20;99.90
17599;DHT22;8918;52.092;5.232;2024-02-26T06:11:31;5.20;99.90
17599;DHT22;8918;52.092;5.232;2024-02-26T06:13:58;5.20;99.90
17599;DHT22;8918;52.092;5.232;2024-02-26T06:16:24;5.20;99.90
17599;DHT22;8918;52.092;5.232;2024-02-26T06:18:50;5.20;99.90
17599;DHT22;8918;52.092;5.232;2024-02-26T06:21:15;5.20;99.90
17599;DHT22;8918;52.092;5.232;2024-02-26T06:23:41;5.20;99.90
17599;DHT22;8918;52.092;5.232;2024-02-26T06:26:07;5.20;99.90
17599;DHT22;8918;52.092;5.232;2024-02-26T06:28:32;5.20;99.90
17599;DHT22;8918;52.092;5.232;2024-02-26T06:30:59;5.20;99.90
17599;DHT22;8918;52.092;5.232;2024-02-26T06:33:25;5.20;99.90
17599;DHT22;8918;52.092;5.232;2024-02-26T06:35:50;5.20;99.90
17599;DHT22;8918;52.092;5.232;2024-02-26T06:38:16;5.20;99.90
17599;DHT22;8918;52.092;5.232;2024-02-26T06:40:43;5.20;99.90
17599;DHT22;8918;52.092;5.232;2024-02-26T06:43:09;5.20;99.90
17599;DHT22;8918;52.092;5.232;2024-02-26T06:45:34;5.20;99.90
17599;DHT22;8918;52.092;5.232;2024-02-26T06:48:00;5.20;99.90
17599;DHT22;8918;52.092;5.232;2024-02-26T06:50:26;5.20;99.90
17599;DHT22;8918;52.092;5.232;2024-02-26T06:52:52;5.20;99.90
17599;DHT22;8918;52.092;5.232;2024-02-26T06:55:17;5.30;99.90
17599;DHT22;8918;52.092;5.232;2024-02-26T06:57:43;5.30;99.90
17599;DHT22;8918;52.092;5.232;2024-02-26T07:00:09;5.30;99.90
17599;DHT22;8918;52.092;5.232;2024-02-26T07:02:39;5.30;99.90
17599;DHT22;8918;52.092;5.232;2024-02-26T07:05:06;5.30;99.90
17599;DHT22;8918;52.092;5.232;2024-02-26T07:07:31;5.30;99.90
17599;DHT22;8918;52.092;5.232;2024-02-26T07:09:57;5.30;99.90
17599;DHT22;8918;52.092;5.232;2024-02-26T07:12:23;5.30;99.90
17599;DHT22;8918;52.092;5.232;2024-02-26T07:14:49;5.20;99.90
17599;DHT22;8918;52.092;5.232;2024-02-26T07:17:15;5.20;99.90
17599;DHT22;8918;52.092;5.232;2024-02-26T07:19:41;5.20;99.90
17599;DHT22;8918;52.092;5.232;2024-02-26T07:22:07;5.20;99.90
17599;DHT22;8918;52.092;5.232;2024-02-26T07:24:33;5.10;99.90
17599;DHT22;8918;52.092;5.232;2024-02-26T07:26:58;5.10;99.90
17599;DHT22;8918;52.092;5.232;2024-02-26T07:29:24;5.10;99.90
17599;DHT22;8918;52.092;5.232;2024-02-26T07:31:49;5.10;99.90
17599;DHT22;8918;52.092;5.232;2024-02-26T07:34:15;5.10;99.90
17599;DHT22;8918;52.092;5.232;2024-02-26T07:36:40;5.20;99.90
17599;DHT22;8918;52.092;5.232;2024-02-26T07:39:06;5.20;99.90
17599;DHT22;8918;52.092;5.232;2024-02-26T07:41:31;5.20;99.90
17599;DHT22;8918;52.092;5.232;2024-02-26T07:43:57;5.20;99.90
17599;DHT22;8918;52.092;5.232;2024-02-26T07:46:23;5.20;99.90
17599;DHT22;8918;52.092;5.232;2024-02-26T07:48:48;5.20;99.90
17599;DHT22;8918;52.092;5.232;2024-02-26T07:51:14;5.20;99.90
17599;DHT22;8918;52.092;5.232;2024-02-26T07:53:40;5.20;99.90
17599;DHT22;8918;52.092;5.232;2024-02-26T07:56:06;5.20;99.90
17599;DHT22;8918;52.092;5.232;2024-02-26T07:58:34;5.20;99.90
17599;DHT22;8918;52.092;5.232;2024-02-26T08:01:00;5.20;99.90
17599;DHT22;8918;52.092;5.232;2024-02-26T08:03:26;5.20;99.90
17599;DHT22;8918;52.092;5.232;2024-02-26T08:05:52;5.20;99.90
17599;DHT22;8918;52.092;5.232;2024-02-26T08:08:17;5.20;99.90
17599;DHT22;8918;52.092;5.232;2024-02-26T08:10:43;5.20;99.90
17599;DHT22;8918;52.092;5.232;2024-02-26T08:13:09;5.30;99.90
17599;DHT22;8918;52.092;5.232;2024-02-26T08:15:37;5.30;99.90
17599;DHT22;8918;52.092;5.232;2024-02-26T08:18:03;5.20;99.90
17599;DHT22;8918;52.092;5.232;2024-02-26T08:20:30;5.30;99.90
17599;DHT22;8918;52.092;5.232;2024-02-26T08:22:56;5.30;99.90
17599;DHT22;8918;52.092;5.232;2024-02-26T08:25:22;5.30;99.90
17599;DHT22;8918;52.092;5.232;2024-02-26T08:27:48;5.30;99.90
17599;DHT22;8918;52.092;5.232;2024-02-26T08:30:14;5.30;99.90
17599;DHT22;8918;52.092;5.232;2024-02-26T08:32:45;5.30;99.90
17599;DHT22;8918;52.092;5.232;2024-02-26T08:35:11;5.30;99.90
17599;DHT22;8918;52.092;5.232;2024-02-26T08:37:36;5.30;99.90
17599;DHT22;8918;52.092;5.232;2024-02-26T08:40:02;5.30;99.90
17599;DHT22;8918;52.092;5.232;2024-02-26T08:42:29;5.30;99.90
17599;DHT22;8918;52.092;5.232;2024-02-26T08:44:55;5.30;99.90
17599;DHT22;8918;52.092;5.232;2024-02-26T08:47:20;5.30;99.90
17599;DHT22;8918;52.092;5.232;2024-02-26T08:49:46;5.40;99.90
17599;DHT22;8918;52.092;5.232;2024-02-26T08:52:11;5.40;99.90
17599;DHT22;8918;52.092;5.232;2024-02-26T08:54:37;5.40;99.90
17599;DHT22;8918;52.092;5.232;2024-02-26T08:57:03;5.50;99.90
17599;DHT22;8918;52.092;5.232;2024-02-26T08:59:29;5.50;99.90
17599;DHT22;8918;52.092;5.232;2024-02-26T09:01:54;5.40;99.90
17599;DHT22;8918;52.092;5.232;2024-02-26T09:04:20;5.50;99.90
17599;DHT22;8918;52.092;5.232;2024-02-26T09:06:46;5.40;99.90
17599;DHT22;8918;52.092;5.232;2024-02-26T09:09:12;5.40;99.90
17599;DHT22;8918;52.092;5.232;2024-02-26T09:11:37;5.30;99.90
17599;DHT22;8918;52.092;5.232;2024-02-26T09:14:03;5.40;99.90
17599;DHT22;8918;52.092;5.232;2024-02-26T09:16:29;5.40;99.90
17599;DHT22;8918;52.092;5.232;2024-02-26T09:18:57;5.40;99.90
17599;DHT22;8918;52.092;5.232;2024-02-26T09:21:22;5.40;99.90
17599;DHT22;8918;52.092;5.232;2024-02-26T09:23:53;5.40;99.90
17599;DHT22;8918;52.092;5.232;2024-02-26T09:26:19;5.40;99.90
17599;DHT22;8918;52.092;5.232;2024-02-26T09:28:45;5.40;99.90
17599;DHT22;8918;52.092;5.232;2024-02-26T09:31:10;5.30;99.90
17599;DHT22;8918;52.092;5.232;2024-02-26T09:33:36;5.40;99.90
17599;DHT22;8918;52.092;5.232;2024-02-26T09:36:03;5.40;99.90
17599;DHT22;8918;52.092;5.232;2024-02-26T09:38:29;5.40;99.90
17599;DHT22;8918;52.092;5.232;2024-02-26T09:40:57;5.40;99.90
17599;DHT22;8918;52.092;5.232;2024-02-26T09:43:23;5.40;99.90
17599;DHT22;8918;52.092;5.232;2024-02-26T09:45:53;5.30;99.90
17599;DHT22;8918;52.092;5.232;2024-02-26T09:48:19;5.30;99.90
17599;DHT22;8918;52.092;5.232;2024-02-26T09:50:45;5.30;99.90
17599;DHT22;8918;52.092;5.232;2024-02-26T09:53:12;5.30;99.90
17599;DHT22;8918;52.092;5.232;2024-02-26T09:55:39;5.30;99.90
17599;DHT22;8918;52.092;5.232;2024-02-26T09:58:05;5.30;99.90
17599;DHT22;8918;52.092;5.232;2024-02-26T10:00:31;5.30;99.90
17599;DHT22;8918;52.092;5.232;2024-02-26T10:03:09;5.30;99.90
17599;DHT22;8918;52.092;5.232;2024-02-26T10:05:41;5.30;99.90
17599;DHT22;8918;52.092;5.232;2024-02-26T10:08:08;5.30;99.90
17599;DHT22;8918;52.092;5.232;2024-02-26T10:10:34;5.30;99.90
17599;DHT22;8918;52.092;5.232;2024-02-26T10:13:02;5.30;99.90
17599;DHT22;8918;52.092;5.232;2024-02-26T10:15:31;5.40;99.90
17599;DHT22;8918;52.092;5.232;2024-02-26T10:17:56;5.40;99.90
17599;DHT22;8918;52.092;5.232;2024-02-26T10:20:22;5.40;99.90
17599;DHT22;8918;52.092;5.232;2024-02-26T10:22:49;5.50;99.90
17599;DHT22;8918;52.092;5.232;2024-02-26T10:25:14;5.50;99.90
17599;DHT22;8918;52.092;5.232;2024-02-26T10:27:41;5.40;99.90
17599;DHT22;8918;52.092;5.232;2024-02-26T10:30:22;5.50;99.90
17599;DHT22;8918;52.092;5.232;2024-02-26T10:32:51;5.50;99.90
17599;DHT22;8918;52.092;5.232;2024-02-26T10:35:18;5.50;99.90
17599;DHT22;8918;52.092;5.232;2024-02-26T10:37:44;5.50;99.90
17599;DHT22;8918;52.092;5.232;2024-02-26T10:40:13;5.50;99.90
17599;DHT22;8918;52.092;5.232;2024-02-26T10:42:40;5.50;99.90
17599;DHT22;8918;52.092;5.232;2024-02-26T10:45:07;5.60;99.90
17599;DHT22;8918;52.092;5.232;2024-02-26T10:47:34;5.60;99.90
17599;DHT22;8918;52.092;5.232;2024-02-26T10:50:05;5.70;99.90
17599;DHT22;8918;52.092;5.232;2024-02-26T10:52:35;5.70;99.90
17599;DHT22;8918;52.092;5.232;2024-02-26T10:55:02;5.70;99.90
17599;DHT22;8918;52.092;5.232;2024-02-26T10:57:35;5.70;99.90
17599;DHT22;8918;52.092;5.232;2024-02-26T11:00:03;5.80;99.90
17599;DHT22;8918;52.092;5.232;2024-02-26T11:02:33;5.70;99.90
17599;DHT22;8918;52.092;5.232;2024-02-26T11:05:03;5.80;99.90
17599;DHT22;8918;52.092;5.232;2024-02-26T11:07:31;5.80;99.90
17599;DHT22;8918;52.092;5.232;2024-02-26T11:09:59;5.80;99.90
17599;DHT22;8918;52.092;5.232;2024-02-26T11:12:27;5.90;99.90
17599;DHT22;8918;52.092;5.232;2024-02-26T11:14:55;5.90;99.90
17599;DHT22;8918;52.092;5.232;2024-02-26T11:17:22;5.90;99.90
17599;DHT22;8918;52.092;5.232;2024-02-26T11:19:50;6.00;99.90
17599;DHT22;8918;52.092;5.232;2024-02-26T11:22:17;6.00;99.90
17599;DHT22;8918;52.092;5.232;2024-02-26T11:24:43;6.00;99.90
17599;DHT22;8918;52.092;5.232;2024-02-26T11:27:10;6.10;99.90
17599;DHT22;8918;52.092;5.232;2024-02-26T11:29:49;6.10;99.90
17599;DHT22;8918;52.092;5.232;2024-02-26T11:32:16;6.00;99.90
17599;DHT22;8918;52.092;5.232;2024-02-26T11:34:42;6.00;99.90
17599;DHT22;8918;52.092;5.232;2024-02-26T11:37:15;6.00;99.90
17599;DHT22;8918;52.092;5.232;2024-02-26T11:39:41;6.10;99.90
17599;DHT22;8918;52.092;5.232;2024-02-26T11:42:08;6.10;99.90
17599;DHT22;8918;52.092;5.232;2024-02-26T11:44:34;6.10;99.90
17599;DHT22;8918;52.092;5.232;2024-02-26T11:47:22;6.10;99.90
17599;DHT22;8918;52.092;5.232;2024-02-26T11:49:48;6.10;99.90
17599;DHT22;8918;52.092;5.232;2024-02-26T11:52:14;6.10;99.90
17599;DHT22;8918;52.092;5.232;2024-02-26T11:57:28;6.10;99.90
17599;DHT22;8918;52.092;5.232;2024-02-26T12:00:12;6.10;99.90
17599;DHT22;8918;52.092;5.232;2024-02-26T12:02:47;6.20;99.90
17599;DHT22;8918;52.092;5.232;2024-02-26T12:05:20;6.10;99.90
17599;DHT22;8918;52.092;5.232;2024-02-26T12:07:48;6.10;99.90
17599;DHT22;8918;52.092;5.232;2024-02-26T12:10:26;6.10;99.90
17599;DHT22;8918;52.092;5.232;2024-02-26T12:13:00;6.00;99.90
17599;DHT22;8918;52.092;5.232;2024-02-26T12:15:34;6.10;99.90
17599;DHT22;8918;52.092;5.232;2024-02-26T12:18:03;6.10;99.90
17599;DHT22;8918;52.092;5.232;2024-02-26T12:20:29;6.00;99.90
17599;DHT22;8918;52.092;5.232;2024-02-26T12:22:56;6.10;99.90
17599;DHT22;8918;52.092;5.232;2024-02-26T12:25:27;6.10;99.90
17599;DHT22;8918;52.092;5.232;2024-02-26T12:27:54;6.10;99.90
17599;DHT22;8918;52.092;5.232;2024-02-26T12:30:20;6.10;99.90
17599;DHT22;8918;52.092;5.232;2024-02-26T12:32:50;6.10;99.90
17599;DHT22;8918;52.092;5.232;2024-02-26T12:35:16;6.20;99.90
17599;DHT22;8918;52.092;5.232;2024-02-26T12:37:45;6.20;99.90
17599;DHT22;8918;52.092;5.232;2024-02-26T12:40:12;6.20;99.90
17599;DHT22;8918;52.092;5.232;2024-02-26T12:42:39;6.20;99.90
17599;DHT22;8918;52.092;5.232;2024-02-26T12:45:06;6.30;99.90
17599;DHT22;8918;52.092;5.232;2024-02-26T12:47:36;6.30;99.90
17599;DHT22;8918;52.092;5.232;2024-02-26T12:50:03;6.30;99.90
17599;DHT22;8918;52.092;5.232;2024-02-26T12:52:31;6.30;99.90
17599;DHT22;8918;52.092;5.232;2024-02-26T12:54:59;6.30;99.90
17599;DHT22;8918;52.092;5.232;2024-02-26T12:57:25;6.30;99.90
17599;DHT22;8918;52.092;5.232;2024-02-26T12:59:52;6.30;99.90
17599;DHT22;8918;52.092;5.232;2024-02-26T13:02:18;6.30;99.90
17599;DHT22;8918;52.092;5.232;2024-02-26T13:04:44;6.30;99.90
17599;DHT22;8918;52.092;5.232;2024-02-26T13:07:10;6.30;99.90
17599;DHT22;8918;52.092;5.232;2024-02-26T13:09:36;6.40;99.90
17599;DHT22;8918;52.092;5.232;2024-02-26T13:12:07;6.40;99.90
17599;DHT22;8918;52.092;5.232;2024-02-26T13:14:33;6.40;99.90
17599;DHT22;8918;52.092;5.232;2024-02-26T13:17:02;6.30;99.90
17599;DHT22;8918;52.092;5.232;2024-02-26T13:19:28;6.40;99.90
17599;DHT22;8918;52.092;5.232;2024-02-26T13:21:54;6.40;99.90
17599;DHT22;8918;52.092;5.232;2024-02-26T13:24:20;6.40;99.90
17599;DHT22;8918;52.092;5.232;2024-02-26T13:26:56;6.40;99.90
17599;DHT22;8918;52.092;5.232;2024-02-26T13:29:22;6.40;99.90
17599;DHT22;8918;52.092;5.232;2024-02-26T13:31:48;6.50;99.90
17599;DHT22;8918;52.092;5.232;2024-02-26T13:34:25;6.40;99.90
17599;DHT22;8918;52.092;5.232;2024-02-26T13:36:52;6.50;99.90
17599;DHT22;8918;52.092;5.232;2024-02-26T13:39:25;6.50;99.90
17599;DHT22;8918;52.092;5.232;2024-02-26T13:41:51;6.50;99.90
17599;DHT22;8918;52.092;5.232;2024-02-26T13:44:18;6.50;99.90
17599;DHT22;8918;52.092;5.232;2024-02-26T13:46:44;6.60;99.90
17599;DHT22;8918;52.092;5.232;2024-02-26T13:49:10;6.60;99.90
17599;DHT22;8918;52.092;5.232;2024-02-26T13:51:37;6.70;99.90
17599;DHT22;8918;52.092;5.232;2024-02-26T13:54:03;6.70;99.90
17599;DHT22;8918;52.092;5.232;2024-02-26T13:56:29;6.70;99.90
17599;DHT22;8918;52.092;5.232;2024-02-26T13:58:55;6.80;99.90
17599;DHT22;8918;52.092;5.232;2024-02-26T14:01:20;6.80;99.90
17599;DHT22;8918;52.092;5.232;2024-02-26T14:03:46;6.80;99.90
17599;DHT22;8918;52.092;5.232;2024-02-26T14:06:11;6.70;99.90
17599;DHT22;8918;52.092;5.232;2024-02-26T14:08:37;6.70;99.90
17599;DHT22;8918;52.092;5.232;2024-02-26T14:11:03;6.70;99.90
17599;DHT22;8918;52.092;5.232;2024-02-26T14:13:28;6.80;99.90
17599;DHT22;8918;52.092;5.232;2024-02-26T14:15:54;6.80;99.90
17599;DHT22;8918;52.092;5.232;2024-02-26T14:18:20;6.80;99.90
17599;DHT22;8918;52.092;5.232;2024-02-26T14:20:45;6.80;99.90
17599;DHT22;8918;52.092;5.232;2024-02-26T14:23:11;6.80;99.90
17599;DHT22;8918;52.092;5.232;2024-02-26T14:25:36;6.80;99.90
17599;DHT22;8918;52.092;5.232;2024-02-26T14:28:02;6.80;99.90
17599;DHT22;8918;52.092;5.232;2024-02-26T14:30:28;6.80;99.90
17599;DHT22;8918;52.092;5.232;2024-02-26T14:32:54;6.80;99.90
17599;DHT22;8918;52.092;5.232;2024-02-26T14:35:20;6.80;99.90
17599;DHT22;8918;52.092;5.232;2024-02-26T14:37:46;6.80;99.90
17599;DHT22;8918;52.092;5.232;2024-02-26T14:40:13;6.80;99.90
17599;DHT22;8918;52.092;5.232;2024-02-26T14:42:40;6.80;99.90
17599;DHT22;8918;52.092;5.232;2024-02-26T14:45:06;6.90;99.90
17599;DHT22;8918;52.092;5.232;2024-02-26T14:47:35;6.80;99.90
17599;DHT22;8918;52.092;5.232;2024-02-26T14:50:00;6.80;99.90
17599;DHT22;8918;52.092;5.232;2024-02-26T14:52:26;6.80;99.90
17599;DHT22;8918;52.092;5.232;2024-02-26T14:54:51;6.80;99.90
17599;DHT22;8918;52.092;5.232;2024-02-26T14:57:18;6.80;99.90
17599;DHT22;8918;52.092;5.232;2024-02-26T14:59:43;6.80;99.90
17599;DHT22;8918;52.092;5.232;2024-02-26T15:02:09;6.80;99.90
17599;DHT22;8918;52.092;5.232;2024-02-26T15:04:38;6.80;99.90
17599;DHT22;8918;52.092;5.232;2024-02-26T15:07:04;6.90;99.90
17599;DHT22;8918;52.092;5.232;2024-02-26T15:09:30;6.90;99.90
17599;DHT22;8918;52.092;5.232;2024-02-26T15:11:55;6.80;99.90
17599;DHT22;8918;52.092;5.232;2024-02-26T15:14:23;6.80;99.90
17599;DHT22;8918;52.092;5.232;2024-02-26T15:16:48;6.80;99.90
17599;DHT22;8918;52.092;5.232;2024-02-26T15:19:14;6.70;99.90
17599;DHT22;8918;52.092;5.232;2024-02-26T15:21:46;6.80;99.90
17599;DHT22;8918;52.092;5.232;2024-02-26T15:24:12;6.80;99.90
17599;DHT22;8918;52.092;5.232;2024-02-26T15:26:38;6.80;99.90
17599;DHT22;8918;52.092;5.232;2024-02-26T15:29:05;6.80;99.90
17599;DHT22;8918;52.092;5.232;2024-02-26T15:31:31;6.80;99.90
17599;DHT22;8918;52.092;5.232;2024-02-26T15:33:57;6.80;99.90
17599;DHT22;8918;52.092;5.232;2024-02-26T15:36:22;6.80;99.90
17599;DHT22;8918;52.092;5.232;2024-02-26T15:38:48;6.80;99.90
17599;DHT22;8918;52.092;5.232;2024-02-26T15:41:14;6.80;99.90
17599;DHT22;8918;52.092;5.232;2024-02-26T15:43:40;6.80;99.90
17599;DHT22;8918;52.092;5.232;2024-02-26T15:46:06;6.80;99.90
17599;DHT22;8918;52.092;5.232;2024-02-26T15:48:32;6.80;99.90
17599;DHT22;8918;52.092;5.232;2024-02-26T15:50:58;6.70;99.90
17599;DHT22;8918;52.092;5.232;2024-02-26T15:53:24;6.70;99.90
17599;DHT22;8918;52.092;5.232;2024-02-26T15:55:50;6.70;99.90
17599;DHT22;8918;52.092;5.232;2024-02-26T15:58:15;6.60;99.90
17599;DHT22;8918;52.092;5.232;2024-02-26T16:00:42;6.60;99.90